Oaks, Oklahoma
Current Conditions -  °F | °C
As of 5:55 PM on Sunday 23 Nov 2014 (Local Time) from KTQH Reporting Station
Broken Clouds Broken Clouds  
Wind Chill: 59°   Ceiling: 5000
Heat Index: 59°   Visibility: 10mi
Dew Point: 50°   Wind: 14mph
Humidity: 72%   Direction: 270°W
Pressure: 29.37"   Gusts: 22mph
Location:  36.17°N, 94.85°W
Report Text: KTQH 232355Z AUTO 27012G19KT 10SM SCT033 SCT040 BKN050 15/10 A2937 RMK AO2
Loading
Personal Weather Stations






























Interactive Weather Map New forecast layout! Learn more

10-Day Weather Forecast

Advertisements
Track Severe Weather on mobile